createdAt,value
2022-08-18T00:01:06.750Z,46.42
2022-08-18T00:03:57.200Z,47.58
2022-08-18T00:06:20.728Z,46.88
2022-08-18T00:08:47.243Z,50.85
2022-08-18T00:11:13.711Z,47.60
2022-08-18T00:13:40.192Z,46.58
2022-08-18T00:16:07.001Z,50.17
2022-08-18T00:18:33.562Z,49.67
2022-08-18T00:21:00.227Z,48.50
2022-08-18T00:23:28.775Z,48.22
2022-08-18T00:25:57.646Z,47.55
2022-08-18T00:28:25.974Z,47.67
2022-08-18T00:30:54.224Z,50.60
2022-08-18T00:33:21.265Z,50.45
2022-08-18T00:35:48.035Z,49.17
2022-08-18T00:38:23.584Z,49.70
2022-08-18T00:40:53.979Z,53.28
2022-08-18T00:43:47.367Z,46.92
2022-08-18T00:46:23.687Z,46.80
2022-08-18T00:48:50.347Z,45.70
2022-08-18T00:51:23.508Z,45.30
2022-08-18T00:54:09.437Z,46.80
2022-08-18T00:56:41.630Z,46.80
2022-08-18T00:59:14.390Z,47.88
2022-08-18T01:01:43.380Z,45.17
2022-08-18T01:04:20.574Z,44.65
2022-08-18T01:06:53.555Z,47.47
2022-08-18T01:09:20.335Z,47.33
2022-08-18T01:11:47.134Z,47.65
2022-08-18T01:14:16.115Z,48.22
2022-08-18T01:17:02.567Z,47.08
2022-08-18T01:19:48.662Z,46.50
2022-08-18T01:22:25.513Z,45.83
2022-08-18T01:25:13.716Z,46.70
2022-08-18T01:27:41.873Z,46.10
2022-08-18T01:30:15.217Z,48.35
2022-08-18T01:32:45.895Z,50.40
2022-08-18T01:35:15.346Z,47.00
2022-08-18T01:37:42.340Z,51.88
2022-08-18T01:41:27.332Z,54.25
2022-08-18T01:42:58.141Z,53.75
2022-08-18T01:45:24.832Z,53.40
2022-08-18T01:47:51.360Z,56.00
2022-08-18T01:50:18.226Z,55.88
2022-08-18T01:52:45.166Z,53.78
2022-08-18T01:55:11.761Z,57.15
2022-08-18T01:57:44.939Z,58.22
2022-08-18T02:00:14.960Z,53.67
2022-08-18T02:02:42.063Z,55.03
2022-08-18T02:05:16.802Z,60.95
2022-08-18T02:07:44.556Z,57.35
2022-08-18T02:10:12.503Z,59.90
2022-08-18T02:12:43.039Z,54.13
2022-08-18T02:15:10.626Z,62.25
2022-08-18T02:17:42.108Z,57.30
2022-08-18T02:20:11.011Z,58.10
2022-08-18T02:22:38.245Z,56.65
2022-08-18T02:25:05.155Z,60.53
2022-08-18T02:27:34.186Z,58.83
2022-08-18T02:30:02.618Z,58.92
2022-08-18T02:32:29.397Z,57.83
2022-08-18T02:34:56.316Z,61.08
2022-08-18T02:37:23.023Z,62.40
2022-08-18T02:39:49.984Z,62.08
2022-08-18T02:42:16.754Z,63.70
2022-08-18T02:44:43.379Z,60.85
2022-08-18T02:47:10.597Z,63.70
2022-08-18T02:49:37.263Z,64.38
2022-08-18T02:52:04.222Z,66.78
2022-08-18T02:54:30.853Z,66.75
2022-08-18T02:56:57.556Z,58.50
2022-08-18T02:59:27.707Z,57.85
2022-08-18T03:01:56.211Z,61.72
2022-08-18T03:04:29.455Z,65.40
2022-08-18T03:06:58.721Z,63.70
2022-08-18T03:09:25.620Z,67.85
2022-08-18T03:11:53.431Z,69.93
2022-08-18T03:14:20.019Z,72.13
2022-08-18T03:16:53.355Z,71.88
2022-08-18T03:19:29.360Z,74.70
2022-08-18T03:21:59.427Z,72.82
2022-08-18T03:24:29.549Z,70.53
2022-08-18T03:26:57.240Z,73.85
2022-08-18T03:29:29.258Z,72.25
2022-08-18T03:31:58.844Z,74.13
2022-08-18T03:34:25.535Z,73.30
2022-08-18T03:36:52.171Z,75.07
2022-08-18T03:39:20.096Z,74.25
2022-08-18T03:41:59.809Z,73.97
2022-08-18T03:44:31.039Z,73.43
2022-08-18T03:46:58.032Z,72.15
2022-08-18T03:49:25.072Z,76.88
2022-08-18T03:51:51.734Z,67.88
2022-08-18T03:54:18.920Z,71.70
2022-08-18T03:56:47.397Z,80.32
2022-08-18T03:59:19.851Z,79.95
2022-08-18T04:01:47.964Z,75.70
2022-08-18T04:04:17.703Z,83.38
2022-08-18T04:06:50.283Z,81.43
2022-08-18T04:09:18.439Z,81.40
2022-08-18T04:11:45.901Z,66.15
2022-08-18T04:14:14.568Z,82.10
2022-08-18T04:16:41.750Z,79.78
2022-08-18T04:19:09.299Z,78.10
2022-08-18T04:21:39.314Z,74.78
2022-08-18T04:24:07.350Z,74.60
2022-08-18T04:26:36.800Z,73.70
2022-08-18T04:29:05.260Z,74.00
2022-08-18T04:31:32.120Z,68.20
2022-08-18T04:34:00.617Z,74.53
2022-08-18T04:36:29.046Z,72.50
2022-08-18T04:38:56.685Z,74.88
2022-08-18T04:41:27.423Z,69.72
2022-08-18T04:43:57.486Z,67.45
2022-08-18T04:46:25.024Z,70.10
2022-08-18T04:48:52.325Z,64.93
2022-08-18T04:52:37.600Z,69.35
2022-08-18T04:54:06.615Z,64.63
2022-08-18T04:56:36.786Z,75.38
2022-08-18T04:59:06.280Z,63.85
2022-08-18T05:01:39.481Z,68.18
2022-08-18T05:04:06.631Z,62.58
2022-08-18T05:06:33.396Z,67.30
2022-08-18T05:09:03.700Z,60.35
2022-08-18T05:11:35.111Z,57.25
2022-08-18T05:14:04.052Z,60.40
2022-08-18T05:16:36.368Z,55.65
2022-08-18T05:19:16.646Z,61.67
2022-08-18T05:21:47.082Z,58.17
2022-08-18T05:24:18.356Z,53.63
2022-08-18T05:26:45.398Z,51.58
2022-08-18T05:29:18.506Z,53.28
2022-08-18T05:31:47.078Z,53.67
2022-08-18T05:34:13.663Z,51.40
2022-08-18T05:36:49.260Z,56.30
2022-08-18T05:39:45.090Z,57.33
2022-08-18T05:42:18.814Z,52.47
2022-08-18T05:44:49.431Z,52.75
2022-08-18T05:47:29.714Z,52.33
2022-08-18T05:50:02.593Z,50.88
2022-08-18T05:52:33.183Z,55.65
2022-08-18T05:55:27.448Z,53.70
2022-08-18T05:57:59.713Z,54.42
2022-08-18T06:00:27.371Z,52.75
2022-08-18T06:03:02.212Z,57.58
2022-08-18T06:05:34.844Z,48.50
2022-08-18T06:08:22.570Z,57.47
2022-08-18T06:10:51.200Z,56.60
2022-08-18T06:13:20.055Z,51.33
2022-08-18T06:15:58.773Z,53.40
2022-08-18T06:18:51.685Z,55.42
2022-08-18T06:21:18.178Z,49.13
2022-08-18T06:24:02.520Z,54.10
2022-08-18T06:26:45.255Z,52.88
2022-08-18T06:29:44.391Z,51.22
2022-08-18T06:32:35.586Z,53.17
2022-08-18T06:35:11.324Z,57.00
2022-08-18T06:38:45.426Z,58.05
2022-08-18T06:41:42.263Z,46.63
2022-08-18T06:44:20.069Z,55.47
2022-08-18T06:47:04.203Z,55.85
2022-08-18T06:50:05.715Z,56.17
2022-08-18T06:52:38.693Z,56.25
2022-08-18T06:55:09.390Z,56.28
2022-08-18T06:57:39.791Z,55.90
2022-08-18T07:00:22.316Z,50.10
2022-08-18T07:02:51.388Z,53.80
2022-08-18T07:05:27.067Z,54.10
2022-08-18T07:08:14.442Z,51.33
2022-08-18T07:10:46.872Z,54.15
2022-08-18T07:13:13.304Z,57.53
2022-08-18T07:15:40.689Z,52.65
2022-08-18T07:18:08.705Z,56.47
2022-08-18T07:20:44.507Z,43.65
2022-08-18T07:23:25.456Z,49.20
2022-08-18T07:26:02.490Z,56.88
2022-08-18T07:28:52.007Z,55.30
2022-08-18T07:31:27.338Z,59.95
2022-08-18T07:36:43.690Z,63.33
2022-08-18T07:39:32.127Z,63.25
2022-08-18T07:42:14.679Z,59.60
2022-08-18T07:45:12.701Z,62.67
2022-08-18T07:47:50.083Z,58.15
2022-08-18T07:50:36.341Z,55.95
2022-08-18T07:53:33.743Z,58.38
2022-08-18T07:56:14.929Z,49.33
2022-08-18T07:58:54.307Z,60.05
2022-08-18T08:01:24.358Z,55.28
2022-08-18T08:04:25.744Z,49.88
2022-08-18T08:07:26.238Z,58.00
2022-08-18T08:10:14.211Z,59.05
2022-08-18T08:12:41.144Z,57.47
2022-08-18T08:15:26.694Z,56.75
2022-08-18T08:18:23.087Z,54.00
2022-08-18T08:20:56.050Z,55.45
2022-08-18T08:24:18.075Z,54.33
2022-08-18T08:27:00.223Z,51.08
2022-08-18T08:29:47.511Z,56.53
2022-08-18T08:32:30.942Z,59.58
2022-08-18T08:35:47.246Z,57.63
2022-08-18T08:38:39.344Z,56.67
2022-08-18T08:41:15.858Z,54.83
2022-08-18T08:43:47.808Z,50.83
2022-08-18T08:46:25.225Z,51.30
2022-08-18T08:49:09.429Z,54.83
2022-08-18T08:51:49.038Z,51.15
2022-08-18T08:54:52.276Z,47.03
2022-08-18T08:57:25.121Z,55.80
2022-08-18T08:59:52.255Z,55.55
2022-08-18T09:02:48.330Z,54.72
2022-08-18T09:05:28.390Z,46.22
2022-08-18T09:08:19.777Z,46.80
2022-08-18T09:10:52.293Z,48.67
2022-08-18T09:13:39.278Z,49.67
2022-08-18T09:16:14.621Z,42.13
2022-08-18T09:18:53.237Z,46.03
2022-08-18T09:21:40.381Z,44.67
2022-08-18T09:24:28.963Z,39.08
2022-08-18T09:27:04.464Z,47.65
2022-08-18T09:29:37.109Z,47.00
2022-08-18T09:32:23.944Z,46.25
2022-08-18T09:35:02.806Z,46.65
2022-08-18T09:38:13.093Z,35.80
2022-08-18T09:41:24.460Z,41.00
2022-08-18T09:47:00.014Z,45.42
2022-08-18T09:49:26.917Z,42.88
2022-08-18T09:50:37.283Z,39.03
2022-08-18T09:51:58.719Z,34.13
2022-08-18T09:54:29.555Z,38.30
2022-08-18T09:57:04.174Z,39.85
2022-08-18T09:59:35.122Z,34.33
2022-08-18T10:02:18.838Z,32.38
2022-08-18T10:05:20.005Z,25.10
2022-08-18T10:07:48.816Z,28.67
2022-08-18T10:11:02.356Z,26.25
2022-08-18T10:16:57.699Z,23.10
2022-08-18T10:19:39.592Z,20.27
2022-08-18T10:22:09.376Z,18.60
2022-08-18T10:24:56.531Z,16.67
2022-08-18T10:27:42.820Z,16.83
2022-08-18T10:30:34.270Z,17.30
2022-08-18T10:33:17.702Z,15.73
2022-08-18T10:36:01.012Z,17.20
2022-08-18T10:38:41.184Z,15.80
2022-08-18T10:41:21.473Z,15.15
2022-08-18T10:43:57.421Z,15.10
2022-08-18T10:46:30.820Z,14.25
2022-08-18T10:49:18.286Z,14.30
2022-08-18T10:54:51.989Z,14.65
2022-08-18T10:58:01.190Z,15.30
2022-08-18T11:00:47.308Z,16.20
2022-08-18T11:03:51.634Z,14.55
2022-08-18T11:06:26.821Z,14.07
2022-08-18T11:08:57.862Z,16.17
2022-08-18T11:14:51.085Z,12.98
2022-08-18T11:17:22.361Z,12.07
2022-08-18T11:19:52.806Z,14.35
2022-08-18T11:22:32.280Z,14.27
2022-08-18T11:25:00.813Z,13.23
2022-08-18T11:27:35.285Z,15.55
2022-08-18T11:30:05.328Z,14.35
2022-08-18T11:32:39.419Z,14.90
2022-08-18T11:35:45.558Z,14.80
2022-08-18T11:41:20.000Z,14.38
2022-08-18T11:43:50.876Z,12.30
2022-08-18T11:46:24.058Z,10.02
2022-08-18T11:48:56.924Z,10.15
2022-08-18T11:51:27.954Z,10.32
2022-08-18T11:53:58.938Z,10.20
2022-08-18T11:56:35.672Z,10.23
2022-08-18T11:59:52.183Z,9.80
2022-08-18T12:02:21.135Z,11.90
2022-08-18T12:05:03.001Z,11.63
2022-08-18T12:07:37.083Z,11.88
2022-08-18T12:10:28.931Z,11.07
2022-08-18T12:13:00.281Z,11.52
2022-08-18T12:15:46.251Z,10.38
2022-08-18T12:18:26.420Z,10.25
2022-08-18T12:20:56.733Z,11.20
2022-08-18T12:23:24.022Z,11.65
2022-08-18T12:25:51.603Z,12.27
2022-08-18T12:28:19.706Z,14.88
2022-08-18T12:30:49.287Z,15.40
2022-08-18T12:33:25.431Z,18.27
2022-08-18T12:35:52.625Z,16.73
2022-08-18T12:38:19.181Z,17.73
2022-08-18T12:40:45.718Z,17.92
2022-08-18T12:43:12.431Z,19.23
2022-08-18T12:45:40.017Z,18.92
2022-08-18T12:48:08.135Z,16.73
2022-08-18T12:50:49.837Z,17.25
2022-08-18T12:53:29.920Z,18.38
2022-08-18T12:56:08.659Z,18.40
2022-08-18T12:58:38.236Z,19.70
2022-08-18T13:01:07.262Z,18.13
2022-08-18T13:03:35.315Z,21.02
2022-08-18T13:06:04.548Z,18.15
2022-08-18T13:08:38.103Z,17.10
2022-08-18T13:11:15.094Z,16.48
2022-08-18T13:13:48.395Z,16.50
2022-08-18T13:16:30.785Z,17.00
2022-08-18T13:19:10.934Z,16.45
2022-08-18T13:21:41.138Z,11.63
2022-08-18T13:24:09.334Z,10.40
2022-08-18T13:26:39.988Z,10.63
2022-08-18T13:29:10.039Z,12.75
2022-08-18T13:31:38.079Z,10.75
2022-08-18T13:34:11.557Z,10.25
2022-08-18T13:36:45.958Z,10.60
2022-08-18T13:39:21.974Z,13.65
2022-08-18T13:41:52.102Z,12.15
2022-08-18T13:44:21.175Z,8.80
2022-08-18T13:46:49.258Z,9.63
2022-08-18T13:49:18.653Z,9.27
2022-08-18T13:51:56.545Z,8.43
2022-08-18T13:54:31.391Z,9.18
2022-08-18T13:56:58.693Z,7.53
2022-08-18T13:59:31.416Z,8.90
2022-08-18T14:01:59.608Z,8.82
2022-08-18T14:04:28.019Z,9.98
2022-08-18T14:06:57.230Z,9.57
2022-08-18T14:09:36.271Z,9.63
2022-08-18T14:12:22.937Z,7.55
2022-08-18T14:14:54.470Z,6.45
2022-08-18T14:17:26.999Z,7.13
2022-08-18T14:20:15.346Z,6.28
2022-08-18T14:23:14.211Z,6.88
2022-08-18T14:26:09.315Z,6.63
2022-08-18T14:28:35.857Z,6.60
2022-08-18T14:31:07.149Z,6.15
2022-08-18T14:33:50.772Z,5.72
2022-08-18T14:36:19.964Z,5.38
2022-08-18T14:38:46.489Z,5.45
2022-08-18T14:41:19.010Z,6.18
2022-08-18T14:44:10.305Z,5.50
2022-08-18T14:46:33.269Z,5.57
2022-08-18T14:49:03.994Z,5.38
2022-08-18T14:51:33.446Z,5.30
2022-08-18T14:54:00.843Z,4.88
2022-08-18T14:56:29.547Z,5.50
2022-08-18T14:58:56.289Z,5.30
2022-08-18T15:01:24.420Z,5.97
2022-08-18T15:03:51.175Z,6.05
2022-08-18T15:06:20.296Z,6.00
2022-08-18T15:08:49.742Z,6.32
2022-08-18T15:11:16.982Z,5.88
2022-08-18T15:13:46.505Z,6.40
2022-08-18T15:16:15.127Z,6.65
2022-08-18T15:18:43.861Z,6.03
2022-08-18T15:21:35.745Z,6.20
2022-08-18T15:24:23.873Z,6.20
2022-08-18T15:26:58.246Z,5.60
2022-08-18T15:29:32.542Z,6.38
2022-08-18T15:32:05.535Z,5.78
2022-08-18T15:34:33.468Z,6.20
2022-08-18T15:37:15.206Z,5.97
2022-08-18T15:39:41.746Z,5.97
2022-08-18T15:42:11.956Z,5.50
2022-08-18T15:44:40.123Z,5.10
2022-08-18T15:47:11.400Z,5.07
2022-08-18T15:49:38.545Z,5.30
2022-08-18T15:52:05.101Z,6.57
2022-08-18T15:54:31.653Z,6.03
2022-08-18T15:56:58.843Z,5.75
2022-08-18T15:59:34.332Z,6.05
2022-08-18T16:02:07.036Z,5.75
2022-08-18T16:04:40.982Z,6.18
2022-08-18T16:07:07.759Z,5.68
2022-08-18T16:09:36.839Z,6.72
2022-08-18T16:12:03.708Z,6.90
2022-08-18T16:14:30.371Z,6.60
2022-08-18T16:16:56.893Z,6.15
2022-08-18T16:19:25.713Z,5.55
2022-08-18T16:21:56.611Z,6.05
2022-08-18T16:24:23.679Z,6.35
2022-08-18T16:26:51.988Z,5.90
2022-08-18T16:29:19.298Z,6.30
2022-08-18T16:31:46.467Z,6.00
2022-08-18T16:34:13.104Z,6.10
2022-08-18T16:36:39.571Z,5.45
2022-08-18T16:39:06.429Z,5.70
2022-08-18T16:41:33.652Z,5.78
2022-08-18T16:44:00.548Z,4.93
2022-08-18T16:46:28.296Z,5.00
2022-08-18T16:48:56.890Z,5.53
2022-08-18T16:51:25.848Z,5.78
2022-08-18T16:53:54.397Z,5.80
2022-08-18T16:56:23.984Z,5.35
2022-08-18T16:59:09.953Z,5.75
2022-08-18T17:01:56.012Z,6.25
2022-08-18T17:04:25.874Z,5.85
2022-08-18T17:06:52.613Z,5.75
2022-08-18T17:09:20.153Z,5.88
2022-08-18T17:11:51.215Z,6.75
2022-08-18T17:14:21.088Z,5.30
2022-08-18T17:16:49.378Z,4.85
2022-08-18T17:19:15.886Z,4.80
2022-08-18T17:21:43.078Z,4.07
2022-08-18T17:24:11.336Z,4.38
2022-08-18T17:27:20.367Z,4.53
2022-08-18T17:30:19.403Z,4.50
2022-08-18T17:32:53.845Z,4.88
2022-08-18T17:35:23.487Z,4.05
2022-08-18T17:38:00.831Z,4.85
2022-08-18T17:40:39.326Z,4.88
2022-08-18T17:43:17.682Z,4.82
2022-08-18T17:45:48.527Z,5.07
2022-08-18T17:48:23.812Z,4.90
2022-08-18T17:51:28.368Z,4.75
2022-08-18T17:53:54.998Z,5.05
2022-08-18T17:56:35.290Z,4.55
2022-08-18T17:59:45.485Z,5.10
2022-08-18T18:02:18.448Z,4.32
2022-08-18T18:05:01.462Z,4.10
2022-08-18T18:07:39.152Z,4.43
2022-08-18T18:10:08.909Z,4.78
2022-08-18T18:12:37.095Z,5.40
2022-08-18T18:15:11.800Z,4.38
2022-08-18T18:17:41.159Z,4.80
2022-08-18T18:20:16.128Z,4.45
2022-08-18T18:25:12.784Z,5.60
2022-08-18T18:27:43.444Z,4.40
2022-08-18T18:30:27.766Z,4.85
2022-08-18T18:33:03.267Z,5.32
2022-08-18T18:35:54.587Z,5.25
2022-08-18T18:38:37.848Z,4.20
2022-08-18T18:41:21.347Z,4.68
2022-08-18T18:43:51.096Z,4.60
2022-08-18T18:47:01.658Z,4.50
2022-08-18T18:49:41.595Z,4.13
2022-08-18T18:52:23.930Z,4.47
2022-08-18T18:55:30.081Z,4.80
2022-08-18T18:58:22.531Z,4.65
2022-08-18T19:00:55.838Z,4.75
2022-08-18T19:03:33.095Z,4.45
2022-08-18T19:06:13.453Z,5.22
2022-08-18T19:09:10.858Z,5.43
2022-08-18T19:12:05.221Z,4.10
2022-08-18T19:14:37.952Z,4.82
2022-08-18T19:17:20.361Z,4.30
2022-08-18T19:20:00.275Z,4.57
2022-08-18T19:22:35.841Z,4.78
2022-08-18T19:25:09.010Z,4.45
2022-08-18T19:27:42.566Z,4.93
2022-08-18T19:30:14.426Z,4.75
2022-08-18T19:32:47.782Z,4.85
2022-08-18T19:35:23.241Z,4.60
2022-08-18T19:38:07.752Z,4.60
2022-08-18T19:41:10.919Z,4.55
2022-08-18T19:44:04.514Z,4.43
2022-08-18T19:46:34.784Z,5.30
2022-08-18T19:49:27.734Z,4.90
2022-08-18T19:52:01.541Z,4.40
2022-08-18T19:55:00.313Z,4.47
2022-08-18T19:57:49.485Z,5.15
2022-08-18T20:00:16.020Z,5.32
2022-08-18T20:03:10.198Z,4.38
2022-08-18T20:06:30.190Z,5.10
2022-08-18T20:09:31.504Z,5.78
2022-08-18T20:12:12.128Z,5.25
2022-08-18T20:14:41.671Z,4.95
2022-08-18T20:17:22.933Z,4.97
2022-08-18T20:19:52.264Z,5.00
2022-08-18T20:22:24.852Z,4.80
2022-08-18T20:25:17.667Z,4.93
2022-08-18T20:27:50.927Z,5.80
2022-08-18T20:30:20.471Z,9.80
2022-08-18T20:33:29.062Z,5.88
2022-08-18T20:36:26.036Z,5.28
2022-08-18T20:38:55.247Z,5.00
2022-08-18T20:41:34.051Z,5.32
2022-08-18T20:44:36.602Z,4.75
2022-08-18T20:47:41.963Z,4.95
2022-08-18T20:50:31.684Z,4.70
2022-08-18T20:53:49.970Z,5.07
2022-08-18T20:56:43.442Z,5.47
2022-08-18T20:59:25.702Z,5.28
2022-08-18T21:01:57.168Z,6.03
2022-08-18T21:05:00.682Z,5.40
2022-08-18T21:07:38.063Z,5.65
2022-08-18T21:10:22.236Z,5.28
2022-08-18T21:12:53.127Z,5.65
2022-08-18T21:15:21.918Z,5.53
2022-08-18T21:18:00.621Z,5.55
2022-08-18T21:20:28.334Z,5.68
2022-08-18T21:23:11.409Z,5.30
2022-08-18T21:25:52.584Z,5.70
2022-08-18T21:28:21.581Z,5.93
2022-08-18T21:31:42.438Z,5.88
2022-08-18T21:34:33.278Z,6.32
2022-08-18T21:37:06.340Z,5.82
2022-08-18T21:39:32.936Z,5.95
2022-08-18T21:41:59.547Z,5.72
2022-08-18T21:44:41.816Z,6.90
2022-08-18T21:47:17.611Z,6.65
2022-08-18T21:50:08.248Z,5.90
2022-08-18T21:52:37.174Z,5.90
2022-08-18T21:55:12.302Z,6.25
2022-08-18T22:00:38.629Z,6.30
2022-08-18T22:03:26.070Z,5.95
2022-08-18T22:06:17.491Z,5.97
2022-08-18T22:08:49.903Z,5.97
2022-08-18T22:12:01.751Z,6.30
2022-08-18T22:14:55.123Z,7.18
2022-08-18T22:17:25.128Z,5.82
2022-08-18T22:19:51.846Z,6.40
2022-08-18T22:22:39.151Z,5.88
2022-08-18T22:25:06.365Z,7.13
2022-08-18T22:27:33.209Z,5.60
2022-08-18T22:30:04.043Z,5.70
2022-08-18T22:32:36.327Z,5.70
2022-08-18T22:35:05.121Z,6.22
2022-08-18T22:37:39.995Z,6.32
2022-08-18T22:40:10.881Z,6.10
2022-08-18T22:42:38.003Z,6.40
2022-08-18T22:45:09.311Z,6.07
2022-08-18T22:47:42.935Z,6.10
2022-08-18T22:50:11.500Z,6.50
2022-08-18T22:52:42.360Z,5.57
2022-08-18T22:55:12.988Z,5.68
2022-08-18T22:57:40.983Z,6.20
2022-08-18T23:00:14.376Z,5.80
2022-08-18T23:02:41.953Z,5.85
2022-08-18T23:05:10.128Z,6.05
2022-08-18T23:07:37.038Z,5.82
2022-08-18T23:10:13.779Z,5.97
2022-08-18T23:12:43.027Z,6.40
2022-08-18T23:15:13.341Z,6.18
2022-08-18T23:17:41.117Z,6.07
2022-08-18T23:20:12.496Z,6.70
2022-08-18T23:22:45.469Z,6.53
2022-08-18T23:25:13.293Z,6.13
2022-08-18T23:27:40.871Z,6.85
2022-08-18T23:30:08.035Z,6.70
2022-08-18T23:32:34.603Z,6.40
2022-08-18T23:35:01.879Z,6.20
2022-08-18T23:37:28.593Z,6.07
2022-08-18T23:39:56.019Z,6.38
2022-08-18T23:42:22.977Z,6.53
2022-08-18T23:44:50.379Z,6.13
2022-08-18T23:47:20.781Z,6.18
2022-08-18T23:49:47.637Z,5.95
2022-08-18T23:52:14.138Z,6.43
2022-08-18T23:54:40.715Z,6.50
2022-08-18T23:57:07.309Z,6.70
2022-08-18T23:59:33.832Z,6.38
